sensor_id;sensor_type;location;lat;lon;timestamp;pressure;altitude;pressure_sealevel;temperature;humidity
29315;BME280;16320;53.954;9.506;2023-02-23T00:02:17;101022.63;;;8.10;100.00
29315;BME280;16320;53.954;9.506;2023-02-23T00:05:21;101026.19;;;8.09;100.00
29315;BME280;16320;53.954;9.506;2023-02-23T00:08:26;101026.03;;;8.12;100.00
29315;BME280;16320;53.954;9.506;2023-02-23T00:11:31;101027.97;;;8.07;100.00
29315;BME280;16320;53.954;9.506;2023-02-23T00:14:37;101023.56;;;8.09;100.00
29315;BME280;16320;53.954;9.506;2023-02-23T00:17:41;101027.97;;;8.07;100.00
29315;BME280;16320;53.954;9.506;2023-02-23T00:20:55;101040.06;;;8.11;100.00
29315;BME280;16320;53.954;9.506;2023-02-23T00:24:04;101026.03;;;8.12;100.00
29315;BME280;16320;53.954;9.506;2023-02-23T00:27:09;101025.31;;;8.09;100.00
29315;BME280;16320;53.954;9.506;2023-02-23T00:30:20;101031.53;;;8.06;100.00
29315;BME280;16320;53.954;9.506;2023-02-23T00:33:24;101031.53;;;8.06;100.00
29315;BME280;16320;53.954;9.506;2023-02-23T00:36:33;101020.88;;;8.11;100.00
29315;BME280;16320;53.954;9.506;2023-02-23T00:39:37;101017.63;;;8.04;100.00
29315;BME280;16320;53.954;9.506;2023-02-23T00:42:43;101023.63;;;8.07;100.00
29315;BME280;16320;53.954;9.506;2023-02-23T00:45:48;101029.81;;;8.05;100.00
29315;BME280;16320;53.954;9.506;2023-02-23T00:48:55;101021.28;;;8.00;100.00
29315;BME280;16320;53.954;9.506;2023-02-23T00:51:59;101027.34;;;8.00;100.00
29315;BME280;16320;53.954;9.506;2023-02-23T00:55:07;101022.97;;;8.01;100.00
29315;BME280;16320;53.954;9.506;2023-02-23T00:58:12;101026.59;;;7.97;100.00
29315;BME280;16320;53.954;9.506;2023-02-23T01:01:17;101030.94;;;7.98;100.00
29315;BME280;16320;53.954;9.506;2023-02-23T01:04:22;101030.00;;;7.99;100.00
29315;BME280;16320;53.954;9.506;2023-02-23T01:07:26;101030.13;;;7.96;100.00
29315;BME280;16320;53.954;9.506;2023-02-23T01:10:31;101030.13;;;7.96;100.00
29315;BME280;16320;53.954;9.506;2023-02-23T01:13:36;101035.25;;;7.99;100.00
29315;BME280;16320;53.954;9.506;2023-02-23T01:16:41;101039.63;;;7.98;100.00
29315;BME280;16320;53.954;9.506;2023-02-23T01:19:46;101033.66;;;7.95;100.00
29315;BME280;16320;53.954;9.506;2023-02-23T01:22:50;101033.72;;;7.93;100.00
29315;BME280;16320;53.954;9.506;2023-02-23T01:25:55;101037.06;;;7.97;100.00
29315;BME280;16320;53.954;9.506;2023-02-23T01:29:04;101039.91;;;7.91;100.00
29315;BME280;16320;53.954;9.506;2023-02-23T01:32:12;101035.47;;;7.93;100.00
29315;BME280;16320;53.954;9.506;2023-02-23T01:35:16;101039.00;;;7.92;100.00
29315;BME280;16320;53.954;9.506;2023-02-23T01:38:21;101035.59;;;7.90;100.00
29315;BME280;16320;53.954;9.506;2023-02-23T01:41:28;101037.34;;;7.89;100.00
29315;BME280;16320;53.954;9.506;2023-02-23T01:47:42;101039.13;;;7.88;100.00
29315;BME280;16320;53.954;9.506;2023-02-23T01:51:01;101042.84;;;7.81;100.00
29315;BME280;16320;53.954;9.506;2023-02-23T01:54:22;101047.16;;;7.82;100.00
29315;BME280;16320;53.954;9.506;2023-02-23T01:57:28;101048.06;;;7.81;100.00
29315;BME280;16320;53.954;9.506;2023-02-23T02:00:32;101055.13;;;7.79;100.00
29315;BME280;16320;53.954;9.506;2023-02-23T02:03:55;101058.75;;;7.75;100.00
29315;BME280;16320;53.954;9.506;2023-02-23T02:07:02;101055.28;;;7.75;100.00
29315;BME280;16320;53.954;9.506;2023-02-23T02:10:09;101060.44;;;7.76;100.00
29315;BME280;16320;53.954;9.506;2023-02-23T02:13:19;101062.16;;;7.77;100.00
29315;BME280;16320;53.954;9.506;2023-02-23T02:34:09;101072.88;;;7.69;100.00
29315;BME280;16320;53.954;9.506;2023-02-23T02:41:16;101066.75;;;7.70;100.00
29315;BME280;16320;53.954;9.506;2023-02-23T02:48:16;101063.34;;;7.68;100.00
29315;BME280;16320;53.954;9.506;2023-02-23T02:51:27;101074.66;;;7.69;100.00
29315;BME280;16320;53.954;9.506;2023-02-23T02:54:49;101068.63;;;7.67;100.00
29315;BME280;16320;53.954;9.506;2023-02-23T02:57:57;101075.59;;;7.66;100.00
29315;BME280;16320;53.954;9.506;2023-02-23T03:01:11;101079.97;;;7.66;100.00
29315;BME280;16320;53.954;9.506;2023-02-23T03:04:34;101075.41;;;7.73;100.00
29315;BME280;16320;53.954;9.506;2023-02-23T03:12:06;101079.97;;;7.66;100.00
29315;BME280;16320;53.954;9.506;2023-02-23T03:15:42;101085.09;;;7.69;100.00
29315;BME280;16320;53.954;9.506;2023-02-23T03:19:25;101085.91;;;7.71;100.00
29315;BME280;16320;53.954;9.506;2023-02-23T03:23:19;101088.72;;;7.65;100.00
29315;BME280;16320;53.954;9.506;2023-02-23T03:26:54;101100.00;;;7.67;100.00
29315;BME280;16320;53.954;9.506;2023-02-23T03:30:25;101105.34;;;7.64;100.00
29315;BME280;16320;53.954;9.506;2023-02-23T03:34:42;101099.41;;;7.59;100.00
29315;BME280;16320;53.954;9.506;2023-02-23T03:37:59;101103.75;;;7.58;100.00
29315;BME280;16320;53.954;9.506;2023-02-23T03:41:27;101109.00;;;7.58;100.00
29315;BME280;16320;53.954;9.506;2023-02-23T03:44:51;101103.00;;;7.55;100.00
29315;BME280;16320;53.954;9.506;2023-02-23T03:48:17;101101.28;;;7.54;100.00
29315;BME280;16320;53.954;9.506;2023-02-23T03:51:49;101105.91;;;7.45;100.00
29315;BME280;16320;53.954;9.506;2023-02-23T03:55:22;101116.38;;;7.45;100.00
29315;BME280;16320;53.954;9.506;2023-02-23T03:58:55;101126.03;;;7.43;100.00
29315;BME280;16320;53.954;9.506;2023-02-23T04:02:21;101121.78;;;7.39;100.00
29315;BME280;16320;53.954;9.506;2023-02-23T04:05:45;101129.81;;;7.35;100.00
29315;BME280;16320;53.954;9.506;2023-02-23T04:09:10;101124.66;;;7.31;100.00
29315;BME280;16320;53.954;9.506;2023-02-23T04:13:04;101136.09;;;7.27;100.00
29315;BME280;16320;53.954;9.506;2023-02-23T04:16:17;101127.41;;;7.27;100.00
29315;BME280;16320;53.954;9.506;2023-02-23T04:19:26;101136.09;;;7.27;100.00
29315;BME280;16320;53.954;9.506;2023-02-23T04:22:31;101137.13;;;7.23;100.00
29315;BME280;16320;53.954;9.506;2023-02-23T04:25:35;101135.16;;;7.30;100.00
29315;BME280;16320;53.954;9.506;2023-02-23T04:28:40;101142.31;;;7.25;100.00
29315;BME280;16320;53.954;9.506;2023-02-23T04:31:45;101145.81;;;7.24;100.00
29315;BME280;16320;53.954;9.506;2023-02-23T04:34:49;101148.41;;;7.24;100.00
29315;BME280;16320;53.954;9.506;2023-02-23T04:37:54;101142.22;;;7.28;100.00
29315;BME280;16320;53.954;9.506;2023-02-23T04:40:58;101144.09;;;7.23;100.00
29315;BME280;16320;53.954;9.506;2023-02-23T04:44:03;101139.81;;;7.20;100.00
29315;BME280;16320;53.954;9.506;2023-02-23T04:47:08;101145.81;;;7.24;100.00
29315;BME280;16320;53.954;9.506;2023-02-23T04:50:13;101148.38;;;7.25;100.00
29315;BME280;16320;53.954;9.506;2023-02-23T04:53:17;101157.06;;;7.26;100.00
29315;BME280;16320;53.954;9.506;2023-02-23T04:56:22;101156.16;;;7.27;100.00
29315;BME280;16320;53.954;9.506;2023-02-23T04:59:26;101157.94;;;7.26;100.00
29315;BME280;16320;53.954;9.506;2023-02-23T05:02:31;101159.47;;;7.32;100.00
29315;BME280;16320;53.954;9.506;2023-02-23T05:05:36;101159.47;;;7.32;100.00
29315;BME280;16320;53.954;9.506;2023-02-23T05:08:40;101162.06;;;7.33;100.00
29315;BME280;16320;53.954;9.506;2023-02-23T05:11:45;101158.56;;;7.35;100.00
29315;BME280;16320;53.954;9.506;2023-02-23T05:14:49;101151.50;;;7.37;100.00
29315;BME280;16320;53.954;9.506;2023-02-23T05:17:54;101154.25;;;7.32;100.00
29315;BME280;16320;53.954;9.506;2023-02-23T05:21:05;101159.41;;;7.35;100.00
29315;BME280;16320;53.954;9.506;2023-02-23T05:24:10;101159.47;;;7.32;100.00
29315;BME280;16320;53.954;9.506;2023-02-23T05:27:14;101164.84;;;7.27;100.00
29315;BME280;16320;53.954;9.506;2023-02-23T05:30:18;101161.56;;;7.21;100.00
29315;BME280;16320;53.954;9.506;2023-02-23T05:33:23;101161.47;;;7.24;100.00
29315;BME280;16320;53.954;9.506;2023-02-23T05:36:27;101166.00;;;7.19;100.00
29315;BME280;16320;53.954;9.506;2023-02-23T05:39:31;101174.63;;;7.21;100.00
29315;BME280;16320;53.954;9.506;2023-02-23T05:42:36;101171.22;;;7.19;100.00
29315;BME280;16320;53.954;9.506;2023-02-23T05:45:43;101176.50;;;7.17;100.00
29315;BME280;16320;53.954;9.506;2023-02-23T05:48:47;101171.97;;;7.22;100.00
29315;BME280;16320;53.954;9.506;2023-02-23T05:51:52;101186.09;;;7.17;100.00
29315;BME280;16320;53.954;9.506;2023-02-23T05:54:56;101187.69;;;7.21;100.00
29315;BME280;16320;53.954;9.506;2023-02-23T05:58:01;101189.47;;;7.20;100.00
29315;BME280;16320;53.954;9.506;2023-02-23T06:01:05;101190.50;;;7.14;100.00
29315;BME280;16320;53.954;9.506;2023-02-23T06:04:09;101189.50;;;7.19;100.00
29315;BME280;16320;53.954;9.506;2023-02-23T06:07:14;101193.09;;;7.14;100.00
29315;BME280;16320;53.954;9.506;2023-02-23T06:10:19;101200.13;;;7.12;100.00
29315;BME280;16320;53.954;9.506;2023-02-23T06:13:23;101201.16;;;7.08;100.00
29315;BME280;16320;53.954;9.506;2023-02-23T06:16:27;101209.06;;;7.05;100.00
29315;BME280;16320;53.954;9.506;2023-02-23T06:19:32;101200.31;;;7.06;100.00
29315;BME280;16320;53.954;9.506;2023-02-23T06:22:37;101206.47;;;7.05;100.00
29315;BME280;16320;53.954;9.506;2023-02-23T06:25:43;101203.00;;;7.03;100.00
29315;BME280;16320;53.954;9.506;2023-02-23T06:28:47;101217.13;;;6.97;100.00
29315;BME280;16320;53.954;9.506;2023-02-23T06:31:51;101213.66;;;6.97;100.00
29315;BME280;16320;53.954;9.506;2023-02-23T06:34:56;101219.78;;;6.96;100.00
29315;BME280;16320;53.954;9.506;2023-02-23T06:38:01;101210.25;;;6.93;100.00
29315;BME280;16320;53.954;9.506;2023-02-23T06:41:08;101222.44;;;6.94;100.00
29315;BME280;16320;53.954;9.506;2023-02-23T06:44:13;101221.72;;;6.89;100.00
29315;BME280;16320;53.954;9.506;2023-02-23T06:47:17;101224.38;;;6.88;100.00
29315;BME280;16320;53.954;9.506;2023-02-23T06:50:21;101220.09;;;6.84;100.00
29315;BME280;16320;53.954;9.506;2023-02-23T06:53:26;101236.84;;;6.76;100.00
29315;BME280;16320;53.954;9.506;2023-02-23T06:56:31;101239.63;;;6.70;100.00
29315;BME280;16320;53.954;9.506;2023-02-23T06:59:36;101248.28;;;6.72;100.00
29315;BME280;16320;53.954;9.506;2023-02-23T07:02:40;101248.34;;;6.69;100.00
29315;BME280;16320;53.954;9.506;2023-02-23T07:05:45;101260.44;;;6.73;100.00
29315;BME280;16320;53.954;9.506;2023-02-23T07:08:49;101259.56;;;6.74;100.00
29315;BME280;16320;53.954;9.506;2023-02-23T07:11:54;101268.38;;;6.69;100.00
29315;BME280;16320;53.954;9.506;2023-02-23T07:14:59;101274.38;;;6.72;100.00
29315;BME280;16320;53.954;9.506;2023-02-23T07:18:03;101274.38;;;6.72;100.00
29315;BME280;16320;53.954;9.506;2023-02-23T07:21:07;101290.13;;;6.69;100.00
29315;BME280;16320;53.954;9.506;2023-02-23T07:24:12;101292.81;;;6.68;100.00
29315;BME280;16320;53.954;9.506;2023-02-23T07:27:16;101288.44;;;6.68;100.00
29315;BME280;16320;53.954;9.506;2023-02-23T07:30:21;101291.91;;;6.67;100.00
29315;BME280;16320;53.954;9.506;2023-02-23T07:33:28;101291.13;;;6.65;100.00
29315;BME280;16320;53.954;9.506;2023-02-23T07:36:33;101298.19;;;6.62;100.00
29315;BME280;16320;53.954;9.506;2023-02-23T07:39:37;101291.22;;;6.60;100.00
29315;BME280;16320;53.954;9.506;2023-02-23T07:42:41;101306.78;;;6.65;100.00
29315;BME280;16320;53.954;9.506;2023-02-23T07:45:46;101309.31;;;6.68;100.00
29315;BME280;16320;53.954;9.506;2023-02-23T07:48:52;101318.91;;;6.68;100.00
29315;BME280;16320;53.954;9.506;2023-02-23T07:51:57;101324.91;;;6.71;100.00
29315;BME280;16320;53.954;9.506;2023-02-23T07:55:02;101337.03;;;6.72;100.00
29315;BME280;16320;53.954;9.506;2023-02-23T07:58:07;101333.69;;;6.67;100.00
29315;BME280;16320;53.954;9.506;2023-02-23T08:01:12;101335.41;;;6.68;100.00
29315;BME280;16320;53.954;9.506;2023-02-23T08:04:17;101335.50;;;6.65;100.00
29315;BME280;16320;53.954;9.506;2023-02-23T08:07:22;101326.84;;;6.63;100.00
29315;BME280;16320;53.954;9.506;2023-02-23T08:10:28;101340.63;;;6.68;100.00
29315;BME280;16320;53.954;9.506;2023-02-23T08:13:33;101342.22;;;6.74;100.00
29315;BME280;16320;53.954;9.506;2023-02-23T08:16:37;101348.44;;;6.70;100.00
29315;BME280;16320;53.954;9.506;2023-02-23T08:19:41;101344.47;;;6.55;100.00
29315;BME280;16320;53.954;9.506;2023-02-23T08:22:46;101347.72;;;6.63;100.00
29315;BME280;16320;53.954;9.506;2023-02-23T08:25:53;101348.66;;;6.60;100.00
29315;BME280;16320;53.954;9.506;2023-02-23T08:28:57;101352.13;;;6.61;100.00
29315;BME280;16320;53.954;9.506;2023-02-23T08:32:03;101356.31;;;6.68;100.00
29315;BME280;16320;53.954;9.506;2023-02-23T08:35:09;101351.31;;;6.59;100.00
29315;BME280;16320;53.954;9.506;2023-02-23T08:38:14;101349.69;;;6.55;100.00
29315;BME280;16320;53.954;9.506;2023-02-23T08:41:19;101344.53;;;6.52;100.00
29315;BME280;16320;53.954;9.506;2023-02-23T08:44:24;101346.22;;;6.53;100.00
29315;BME280;16320;53.954;9.506;2023-02-23T08:47:28;101346.16;;;6.56;100.00
29315;BME280;16320;53.954;9.506;2023-02-23T08:50:33;101348.59;;;6.64;100.00
29315;BME280;16320;53.954;9.506;2023-02-23T08:53:37;101346.09;;;6.59;100.00
29315;BME280;16320;53.954;9.506;2023-02-23T08:56:43;101343.44;;;6.60;100.00
29315;BME280;16320;53.954;9.506;2023-02-23T08:59:47;101345.09;;;6.65;100.00
29315;BME280;16320;53.954;9.506;2023-02-23T09:02:52;101339.28;;;6.53;100.00
29315;BME280;16320;53.954;9.506;2023-02-23T09:06:04;101343.59;;;6.54;100.00
29315;BME280;16320;53.954;9.506;2023-02-23T09:09:09;101331.47;;;6.52;100.00
29315;BME280;16320;53.954;9.506;2023-02-23T09:12:13;101338.41;;;6.53;100.00
29315;BME280;16320;53.954;9.506;2023-02-23T09:15:18;101339.31;;;6.52;100.00
29315;BME280;16320;53.954;9.506;2023-02-23T09:18:23;101339.31;;;6.52;100.00
29315;BME280;16320;53.954;9.506;2023-02-23T09:21:30;101338.25;;;6.59;100.00
29315;BME280;16320;53.954;9.506;2023-02-23T09:24:37;101339.97;;;6.60;100.00
29315;BME280;16320;53.954;9.506;2023-02-23T09:27:41;101330.34;;;6.62;100.00
29315;BME280;16320;53.954;9.506;2023-02-23T09:30:46;101332.16;;;6.60;100.00
29315;BME280;16320;53.954;9.506;2023-02-23T09:33:52;101323.50;;;6.58;100.00
29315;BME280;16320;53.954;9.506;2023-02-23T09:36:57;101314.84;;;6.56;100.00
29315;BME280;16320;53.954;9.506;2023-02-23T09:40:01;101300.91;;;6.57;100.00
29315;BME280;16320;53.954;9.506;2023-02-23T09:43:35;101293.72;;;6.65;100.00
29315;BME280;16320;53.954;9.506;2023-02-23T09:50:20;101252.16;;;6.57;100.00
29315;BME280;16320;53.954;9.506;2023-02-23T09:53:35;101236.13;;;6.71;100.00
29315;BME280;16320;53.954;9.506;2023-02-23T09:56:47;101226.97;;;6.88;100.00
29315;BME280;16320;53.954;9.506;2023-02-23T09:59:53;101208.53;;;6.94;100.00
29315;BME280;16320;53.954;9.506;2023-02-23T10:03:54;101191.94;;;6.95;100.00
29315;BME280;16320;53.954;9.506;2023-02-23T10:07:25;101179.59;;;7.00;100.00
29315;BME280;16320;53.954;9.506;2023-02-23T10:10:43;101167.03;;;6.83;100.00
29315;BME280;16320;53.954;9.506;2023-02-23T10:14:13;101162.28;;;6.97;100.00
29315;BME280;16320;53.954;9.506;2023-02-23T10:21:06;101139.53;;;7.01;100.00
29315;BME280;16320;53.954;9.506;2023-02-23T10:24:44;101136.97;;;7.00;100.00
29315;BME280;16320;53.954;9.506;2023-02-23T10:27:53;101129.00;;;7.04;100.00
29315;BME280;16320;53.954;9.506;2023-02-23T10:30:59;101135.16;;;7.02;100.00
29315;BME280;16320;53.954;9.506;2023-02-23T10:34:15;101129.69;;;7.09;100.00
29315;BME280;16320;53.954;9.506;2023-02-23T10:37:21;101126.81;;;7.19;100.00
29315;BME280;16320;53.954;9.506;2023-02-23T10:40:31;101130.03;;;7.27;100.00
29315;BME280;16320;53.954;9.506;2023-02-23T10:43:36;101123.00;;;7.29;100.00
29315;BME280;16320;53.954;9.506;2023-02-23T10:46:40;101128.78;;;7.39;100.00
29315;BME280;16320;53.954;9.506;2023-02-23T10:49:52;101119.81;;;7.47;100.00
29315;BME280;16320;53.954;9.506;2023-02-23T10:53:11;101114.22;;;7.31;100.00
29315;BME280;16320;53.954;9.506;2023-02-23T10:56:22;101114.16;;;7.33;100.00
29315;BME280;16320;53.954;9.506;2023-02-23T10:59:26;101114.97;;;7.35;100.00
29315;BME280;16320;53.954;9.506;2023-02-23T11:02:32;101108.63;;;7.42;100.00
29315;BME280;16320;53.954;9.506;2023-02-23T11:05:46;101120.41;;;7.56;100.00
29315;BME280;16320;53.954;9.506;2023-02-23T11:08:53;101110.75;;;7.58;100.00
29315;BME280;16320;53.954;9.506;2023-02-23T11:12:36;101101.19;;;7.57;100.00
29315;BME280;16320;53.954;9.506;2023-02-23T11:15:44;101104.84;;;7.53;100.00
29315;BME280;16320;53.954;9.506;2023-02-23T11:19:00;101108.09;;;7.59;100.00
29315;BME280;16320;53.954;9.506;2023-02-23T11:22:05;101105.34;;;7.64;100.00
29315;BME280;16320;53.954;9.506;2023-02-23T11:25:22;101104.50;;;7.62;100.00
29315;BME280;16320;53.954;9.506;2023-02-23T11:28:32;101100.34;;;7.56;100.00
29315;BME280;16320;53.954;9.506;2023-02-23T11:31:39;101091.56;;;7.59;100.00
29315;BME280;16320;53.954;9.506;2023-02-23T11:34:46;101097.69;;;7.58;100.00
29315;BME280;16320;53.954;9.506;2023-02-23T11:37:52;101101.00;;;7.63;100.00
29315;BME280;16320;53.954;9.506;2023-02-23T11:41:02;101104.41;;;7.65;100.00
29315;BME280;16320;53.954;9.506;2023-02-23T11:44:19;101096.50;;;7.66;100.00
29315;BME280;16320;53.954;9.506;2023-02-23T11:47:24;101091.19;;;7.69;100.00
29315;BME280;16320;53.954;9.506;2023-02-23T11:50:33;101093.09;;;7.64;100.00
29315;BME280;16320;53.954;9.506;2023-02-23T11:53:44;101091.19;;;7.69;100.00
29315;BME280;16320;53.954;9.506;2023-02-23T11:56:49;101094.28;;;7.81;100.00
29315;BME280;16320;53.954;9.506;2023-02-23T12:00:00;101083.69;;;7.85;100.00
29315;BME280;16320;53.954;9.506;2023-02-23T12:03:05;101074.53;;;7.97;100.00
29315;BME280;16320;53.954;9.506;2023-02-23T12:06:10;101080.19;;;8.10;100.00
29315;BME280;16320;53.954;9.506;2023-02-23T12:09:26;101076.56;;;8.14;100.00
29315;BME280;16320;53.954;9.506;2023-02-23T12:16:45;101059.84;;;8.18;100.00
29315;BME280;16320;53.954;9.506;2023-02-23T12:20:05;101062.81;;;8.09;100.00
29315;BME280;16320;53.954;9.506;2023-02-23T12:23:26;101056.28;;;7.96;100.00
29315;BME280;16320;53.954;9.506;2023-02-23T12:26:49;101060.03;;;7.88;100.00
29315;BME280;16320;53.954;9.506;2023-02-23T12:30:42;101067.09;;;7.86;100.00
29315;BME280;16320;53.954;9.506;2023-02-23T12:33:56;101066.16;;;7.87;100.00
29315;BME280;16320;53.954;9.506;2023-02-23T12:40:23;101065.59;;;8.04;100.00
29315;BME280;16320;53.954;9.506;2023-02-23T12:46:46;101071.03;;;7.98;100.00
29315;BME280;16320;53.954;9.506;2023-02-23T12:50:04;101063.28;;;7.95;100.00
29315;BME280;16320;53.954;9.506;2023-02-23T12:53:41;101067.63;;;7.96;100.00
29315;BME280;16320;53.954;9.506;2023-02-23T13:04:28;101070.59;;;7.85;100.00
29315;BME280;16320;53.954;9.506;2023-02-23T13:15:17;101072.91;;;7.95;100.00
29315;BME280;16320;53.954;9.506;2023-02-23T13:18:33;101071.22;;;7.92;100.00
29315;BME280;16320;53.954;9.506;2023-02-23T13:21:46;101069.41;;;7.94;100.00
29315;BME280;16320;53.954;9.506;2023-02-23T13:24:56;101069.34;;;7.96;100.00
29315;BME280;16320;53.954;9.506;2023-02-23T13:28:02;101074.88;;;7.88;100.00
29315;BME280;16320;53.954;9.506;2023-02-23T13:31:26;101072.38;;;7.85;100.00
29315;BME280;16320;53.954;9.506;2023-02-23T13:34:38;101070.81;;;7.79;100.00
29315;BME280;16320;53.954;9.506;2023-02-23T13:37:59;101076.66;;;7.61;100.00
29315;BME280;16320;53.954;9.506;2023-02-23T13:41:38;101083.72;;;7.59;100.00
29315;BME280;16320;53.954;9.506;2023-02-23T13:52:36;101086.94;;;7.67;100.00
29315;BME280;16320;53.954;9.506;2023-02-23T13:55:47;101081.81;;;7.64;100.00
29315;BME280;16320;53.954;9.506;2023-02-23T13:59:02;101081.34;;;7.51;100.00
29315;BME280;16320;53.954;9.506;2023-02-23T14:05:30;101089.34;;;7.46;100.00
29315;BME280;16320;53.954;9.506;2023-02-23T14:08:37;101093.63;;;7.49;100.00
29315;BME280;16320;53.954;9.506;2023-02-23T14:11:50;101091.06;;;7.47;100.00
29315;BME280;16320;53.954;9.506;2023-02-23T14:18:31;101094.56;;;7.46;100.00
29315;BME280;16320;53.954;9.506;2023-02-23T14:21:49;101100.97;;;7.38;100.00
29315;BME280;16320;53.954;9.506;2023-02-23T14:28:44;101102.88;;;7.31;100.00
29315;BME280;16320;53.954;9.506;2023-02-23T14:38:35;101114.38;;;7.27;100.00
29315;BME280;16320;53.954;9.506;2023-02-23T14:41:57;101111.69;;;7.28;100.00
29315;BME280;16320;53.954;9.506;2023-02-23T14:45:25;101115.38;;;7.21;100.00
29315;BME280;16320;53.954;9.506;2023-02-23T14:48:32;101121.59;;;7.19;100.00
29315;BME280;16320;53.954;9.506;2023-02-23T14:51:48;101129.47;;;7.17;100.00
29315;BME280;16320;53.954;9.506;2023-02-23T14:58:27;101136.66;;;7.10;100.00
29315;BME280;16320;53.954;9.506;2023-02-23T15:01:37;101134.56;;;6.92;100.00
29315;BME280;16320;53.954;9.506;2023-02-23T15:04:42;101120.03;;;6.83;100.00
29315;BME280;16320;53.954;9.506;2023-02-23T15:07:47;101121.09;;;6.77;100.00
29315;BME280;16320;53.954;9.506;2023-02-23T15:11:03;101114.25;;;6.73;100.00
29315;BME280;16320;53.954;9.506;2023-02-23T15:14:15;101110.25;;;6.62;100.00
29315;BME280;16320;53.954;9.506;2023-02-23T15:17:32;101101.78;;;6.53;100.00
29315;BME280;16320;53.954;9.506;2023-02-23T15:20:40;101102.78;;;6.48;100.00
29315;BME280;16320;53.954;9.506;2023-02-23T15:24:03;101087.13;;;6.48;100.00
29315;BME280;16320;53.954;9.506;2023-02-23T15:27:21;101076.81;;;6.43;100.00
29315;BME280;16320;53.954;9.506;2023-02-23T15:30:31;101053.53;;;6.37;100.00
29315;BME280;16320;53.954;9.506;2023-02-23T15:33:35;101045.94;;;6.29;100.00
29315;BME280;16320;53.954;9.506;2023-02-23T15:36:40;101044.38;;;6.22;100.00
29315;BME280;16320;53.954;9.506;2023-02-23T15:40:04;101032.41;;;6.15;100.00
29315;BME280;16320;53.954;9.506;2023-02-23T15:43:10;101045.28;;;6.21;100.00
29315;BME280;16320;53.954;9.506;2023-02-23T15:46:23;101044.56;;;6.16;100.00
29315;BME280;16320;53.954;9.506;2023-02-23T15:49:34;101034.03;;;6.19;100.00
29315;BME280;16320;53.954;9.506;2023-02-23T15:52:49;101025.56;;;6.11;100.00
29315;BME280;16320;53.954;9.506;2023-02-23T15:56:01;101032.50;;;6.12;100.00
29315;BME280;16320;53.954;9.506;2023-02-23T15:59:15;101031.91;;;6.02;100.00
29315;BME280;16320;53.954;9.506;2023-02-23T16:02:24;101027.63;;;5.99;100.00
29315;BME280;16320;53.954;9.506;2023-02-23T16:05:32;101028.41;;;6.03;100.00
29315;BME280;16320;53.954;9.506;2023-02-23T16:09:00;101031.28;;;5.92;100.00
29315;BME280;16320;53.954;9.506;2023-02-23T16:12:19;101037.41;;;5.90;100.00
29315;BME280;16320;53.954;9.506;2023-02-23T16:15:28;101040.13;;;5.86;100.00
29315;BME280;16320;53.954;9.506;2023-02-23T16:18:40;101033.31;;;5.81;100.00
29315;BME280;16320;53.954;9.506;2023-02-23T16:21:54;101024.69;;;5.79;100.00
29315;BME280;16320;53.954;9.506;2023-02-23T16:25:03;101031.59;;;5.80;100.00
29315;BME280;16320;53.954;9.506;2023-02-23T16:28:25;101031.78;;;5.74;100.00
29315;BME280;16320;53.954;9.506;2023-02-23T16:31:47;101047.56;;;5.67;100.00
29315;BME280;16320;53.954;9.506;2023-02-23T16:35:00;101051.97;;;5.65;100.00
29315;BME280;16320;53.954;9.506;2023-02-23T16:38:33;101052.09;;;5.61;100.00
29315;BME280;16320;53.954;9.506;2023-02-23T16:41:38;101046.84;;;5.62;100.00
29315;BME280;16320;53.954;9.506;2023-02-23T16:44:43;101043.56;;;5.56;100.00
29315;BME280;16320;53.954;9.506;2023-02-23T16:47:50;101039.19;;;5.56;100.00
29315;BME280;16320;53.954;9.506;2023-02-23T16:50:54;101040.22;;;5.49;100.00
29315;BME280;16320;53.954;9.506;2023-02-23T16:53:59;101054.19;;;5.46;100.00
29315;BME280;16320;53.954;9.506;2023-02-23T16:57:14;101053.34;;;5.46;100.00
29315;BME280;16320;53.954;9.506;2023-02-23T17:00:28;101043.84;;;5.43;100.00
29315;BME280;16320;53.954;9.506;2023-02-23T17:03:34;101044.09;;;5.32;100.00
29315;BME280;16320;53.954;9.506;2023-02-23T17:06:50;101063.16;;;5.36;100.00
29315;BME280;16320;53.954;9.506;2023-02-23T17:10:01;101058.84;;;5.34;100.00
29315;BME280;16320;53.954;9.506;2023-02-23T17:16:22;101071.13;;;5.28;100.00
29315;BME280;16320;53.954;9.506;2023-02-23T17:19:27;101071.13;;;5.28;100.00
29315;BME280;16320;53.954;9.506;2023-02-23T17:22:31;101086.09;;;5.20;100.00
29315;BME280;16320;53.954;9.506;2023-02-23T17:25:36;101066.97;;;5.20;100.00
29315;BME280;16320;53.954;9.506;2023-02-23T17:28:40;101066.25;;;5.14;100.00
29315;BME280;16320;53.954;9.506;2023-02-23T17:31:45;101069.84;;;5.09;100.00
29315;BME280;16320;53.954;9.506;2023-02-23T17:34:49;101073.34;;;5.08;100.00
29315;BME280;16320;53.954;9.506;2023-02-23T17:37:55;101074.41;;;4.99;100.00
29315;BME280;16320;53.954;9.506;2023-02-23T17:41:02;101073.91;;;4.83;100.00
29315;BME280;16320;53.954;9.506;2023-02-23T17:44:07;101078.38;;;4.78;100.00
29315;BME280;16320;53.954;9.506;2023-02-23T17:47:11;101081.88;;;4.75;100.00
29315;BME280;16320;53.954;9.506;2023-02-23T17:50:16;101077.81;;;4.64;100.00
29315;BME280;16320;53.954;9.506;2023-02-23T17:53:24;101087.38;;;4.62;100.00
29315;BME280;16320;53.954;9.506;2023-02-23T17:56:28;101084.84;;;4.58;100.00
29315;BME280;16320;53.954;9.506;2023-02-23T17:59:34;101076.34;;;4.50;100.00
29315;BME280;16320;53.954;9.506;2023-02-23T18:02:40;101068.72;;;4.41;100.00
29315;BME280;16320;53.954;9.506;2023-02-23T18:05:46;101073.13;;;4.39;100.00
29315;BME280;16320;53.954;9.506;2023-02-23T18:08:51;101069.75;;;4.34;100.00
29315;BME280;16320;53.954;9.506;2023-02-23T18:11:55;101067.25;;;4.29;100.00
29315;BME280;16320;53.954;9.506;2023-02-23T18:15:00;101076.03;;;4.22;100.00